createdAt,value
2018-06-17T00:00:57.571Z,1005.19
2018-06-17T00:01:57.572Z,1005.18
2018-06-17T00:02:57.577Z,1005.18
2018-06-17T00:03:57.581Z,1005.20
2018-06-17T00:04:57.582Z,1005.18
2018-06-17T00:05:57.584Z,1005.22
2018-06-17T00:06:57.586Z,1005.18
2018-06-17T00:07:57.590Z,1005.21
2018-06-17T00:08:57.592Z,1005.20
2018-06-17T00:09:57.597Z,1005.18
2018-06-17T00:10:57.598Z,1005.19
2018-06-17T00:11:57.601Z,1005.23
2018-06-17T00:12:57.604Z,1005.25
2018-06-17T00:13:57.606Z,1005.22
2018-06-17T00:14:57.607Z,1005.18
2018-06-17T00:15:57.612Z,1005.16
2018-06-17T00:16:57.615Z,1005.17
2018-06-17T00:17:57.616Z,1005.18
2018-06-17T00:18:57.620Z,1005.16
2018-06-17T00:19:57.623Z,1005.14
2018-06-17T00:20:57.626Z,1005.16
2018-06-17T00:21:57.627Z,1005.15
2018-06-17T00:22:57.630Z,1005.17
2018-06-17T00:23:57.633Z,1005.17
2018-06-17T00:24:57.636Z,1005.15
2018-06-17T00:25:57.638Z,1005.15
2018-06-17T00:26:57.641Z,1005.16
2018-06-17T00:27:57.645Z,1005.18
2018-06-17T00:28:57.646Z,1005.14
2018-06-17T00:29:57.649Z,1005.15
2018-06-17T00:30:57.652Z,1005.22
2018-06-17T00:31:57.655Z,1005.22
2018-06-17T00:32:57.657Z,1005.26
2018-06-17T00:33:57.659Z,1005.23
2018-06-17T00:34:57.665Z,1005.23
2018-06-17T00:35:57.665Z,1005.19
2018-06-17T00:36:57.668Z,1005.21
2018-06-17T00:37:57.668Z,1005.13
2018-06-17T00:38:57.673Z,1005.14
2018-06-17T00:39:57.675Z,1005.15
2018-06-17T00:40:57.679Z,1005.16
2018-06-17T00:41:57.680Z,1005.16
2018-06-17T00:42:57.683Z,1005.16
2018-06-17T00:43:57.685Z,1005.17
2018-06-17T00:44:57.689Z,1005.17
2018-06-17T00:45:57.690Z,1005.15
2018-06-17T00:46:57.693Z,1005.12
2018-06-17T00:47:57.696Z,1005.15
2018-06-17T00:48:57.699Z,1005.13
2018-06-17T00:49:57.701Z,1005.17
2018-06-17T00:50:57.703Z,1005.14
2018-06-17T00:51:57.707Z,1005.15
2018-06-17T00:52:57.709Z,1005.17
2018-06-17T00:53:57.713Z,1005.13
2018-06-17T00:54:57.715Z,1005.16
2018-06-17T00:55:57.714Z,1005.14
2018-06-17T00:56:57.718Z,1005.17
2018-06-17T00:57:57.720Z,1005.17
2018-06-17T00:58:57.724Z,1005.18
2018-06-17T00:59:57.725Z,1005.20
2018-06-17T01:00:57.728Z,1005.15
2018-06-17T01:01:57.730Z,1005.16
2018-06-17T01:02:57.732Z,1005.17
2018-06-17T01:03:57.733Z,1005.19
2018-06-17T01:04:57.738Z,1005.15
2018-06-17T01:05:57.740Z,1005.17
2018-06-17T01:06:57.742Z,1005.14
2018-06-17T01:07:57.744Z,1005.13
2018-06-17T01:08:57.747Z,1005.13
2018-06-17T01:09:57.749Z,1005.10
2018-06-17T01:10:57.751Z,1005.16
2018-06-17T01:11:57.757Z,1005.19
2018-06-17T01:12:57.756Z,1005.22
2018-06-17T01:13:57.756Z,1005.25
2018-06-17T01:14:57.760Z,1005.29
2018-06-17T01:15:57.762Z,1005.28
2018-06-17T01:16:57.765Z,1005.33
2018-06-17T01:17:57.766Z,1005.30
2018-06-17T01:18:57.791Z,1005.34
2018-06-17T01:19:57.774Z,1005.34
2018-06-17T01:20:57.773Z,1005.40
2018-06-17T01:21:57.777Z,1005.40
2018-06-17T01:22:57.776Z,1005.39
2018-06-17T01:23:57.779Z,1005.41
2018-06-17T01:24:57.781Z,1005.39
2018-06-17T01:25:57.782Z,1005.39
2018-06-17T01:26:57.785Z,1005.40
2018-06-17T01:27:57.787Z,1005.37
2018-06-17T01:28:57.789Z,1005.39
2018-06-17T01:29:57.791Z,1005.39
2018-06-17T01:30:57.792Z,1005.37
2018-06-17T01:31:57.795Z,1005.32
2018-06-17T01:32:57.800Z,1005.32
2018-06-17T01:33:57.798Z,1005.33
2018-06-17T01:34:57.802Z,1005.36
2018-06-17T01:35:57.803Z,1005.35
2018-06-17T01:36:57.804Z,1005.35
2018-06-17T01:37:57.806Z,1005.37
2018-06-17T01:38:57.807Z,1005.37
2018-06-17T01:39:57.811Z,1005.38
2018-06-17T01:40:57.811Z,1005.38
2018-06-17T01:41:57.816Z,1005.42
2018-06-17T01:42:57.814Z,1005.42
2018-06-17T01:43:57.816Z,1005.39
2018-06-17T01:44:57.818Z,1005.36
2018-06-17T01:45:57.819Z,1005.39
2018-06-17T01:46:57.819Z,1005.35
2018-06-17T01:47:57.822Z,1005.32
2018-06-17T01:48:57.824Z,1005.33
2018-06-17T01:49:57.833Z,1005.36
2018-06-17T01:50:57.826Z,1005.39
2018-06-17T01:51:57.828Z,1005.39
2018-06-17T01:52:57.830Z,1005.37
2018-06-17T01:53:57.831Z,1005.39
2018-06-17T01:54:57.833Z,1005.38
2018-06-17T01:55:57.834Z,1005.37
2018-06-17T01:56:57.836Z,1005.31
2018-06-17T01:57:57.836Z,1005.31
2018-06-17T01:58:57.841Z,1005.25
2018-06-17T01:59:57.841Z,1005.28
2018-06-17T02:00:57.845Z,1005.30
2018-06-17T02:01:57.841Z,1005.33
2018-06-17T02:02:57.844Z,1005.29
2018-06-17T02:03:57.844Z,1005.32
2018-06-17T02:04:57.846Z,1005.32
2018-06-17T02:05:57.846Z,1005.32
2018-06-17T02:06:57.850Z,1005.31
2018-06-17T02:07:57.850Z,1005.28
2018-06-17T02:08:57.852Z,1005.30
2018-06-17T02:09:57.852Z,1005.22
2018-06-17T02:10:57.854Z,1005.28
2018-06-17T02:11:57.855Z,1005.25
2018-06-17T02:12:57.857Z,1005.26
2018-06-17T02:13:57.857Z,1005.24
2018-06-17T02:14:57.858Z,1005.28
2018-06-17T02:15:57.862Z,1005.26
2018-06-17T02:16:57.862Z,1005.25
2018-06-17T02:17:57.863Z,1005.24
2018-06-17T02:18:57.864Z,1005.25
2018-06-17T02:19:57.867Z,1005.26
2018-06-17T02:20:57.867Z,1005.28
2018-06-17T02:21:57.869Z,1005.28
2018-06-17T02:22:57.872Z,1005.32
2018-06-17T02:23:57.871Z,1005.33
2018-06-17T02:24:57.878Z,1005.36
2018-06-17T02:25:57.874Z,1005.35
2018-06-17T02:26:57.874Z,1005.41
2018-06-17T02:27:57.877Z,1005.38
2018-06-17T02:28:57.878Z,1005.38
2018-06-17T02:29:57.879Z,1005.37
2018-06-17T02:30:57.881Z,1005.38
2018-06-17T02:31:57.882Z,1005.40
2018-06-17T02:32:57.884Z,1005.41
2018-06-17T02:33:57.885Z,1005.38
2018-06-17T02:34:57.890Z,1005.34
2018-06-17T02:35:57.888Z,1005.39
2018-06-17T02:36:57.889Z,1005.39
2018-06-17T02:37:57.890Z,1005.37
2018-06-17T02:38:57.892Z,1005.34
2018-06-17T02:39:57.893Z,1005.33
2018-06-17T02:40:57.895Z,1005.27
2018-06-17T02:41:57.895Z,1005.31
2018-06-17T02:42:57.897Z,1005.30
2018-06-17T02:43:57.898Z,1005.28
2018-06-17T02:44:57.899Z,1005.26
2018-06-17T02:45:57.904Z,1005.23
2018-06-17T02:46:57.901Z,1005.25
2018-06-17T02:47:57.910Z,1005.27
2018-06-17T02:48:57.905Z,1005.27
2018-06-17T02:49:57.906Z,1005.24
2018-06-17T02:50:57.906Z,1005.30
2018-06-17T02:51:57.907Z,1005.30
2018-06-17T02:52:57.909Z,1005.27
2018-06-17T02:53:57.911Z,1005.26
2018-06-17T02:54:57.911Z,1005.24
2018-06-17T02:55:57.913Z,1005.25
2018-06-17T02:56:57.914Z,1005.25
2018-06-17T02:57:57.915Z,1005.25
2018-06-17T02:58:57.916Z,1005.26
2018-06-17T02:59:57.918Z,1005.25
2018-06-17T03:00:57.919Z,1005.23
2018-06-17T03:01:57.920Z,1005.25
2018-06-17T03:02:57.920Z,1005.27
2018-06-17T03:03:57.951Z,1005.29
2018-06-17T03:04:57.923Z,1005.29
2018-06-17T03:05:57.924Z,1005.31
2018-06-17T03:06:57.926Z,1005.34
2018-06-17T03:07:57.925Z,1005.31
2018-06-17T03:08:57.928Z,1005.33
2018-06-17T03:09:57.934Z,1005.32
2018-06-17T03:10:57.931Z,1005.32
2018-06-17T03:11:57.931Z,1005.32
2018-06-17T03:12:57.933Z,1005.39
2018-06-17T03:13:57.933Z,1005.37
2018-06-17T03:14:57.934Z,1005.34
2018-06-17T03:15:57.936Z,1005.36
2018-06-17T03:16:57.940Z,1005.42
2018-06-17T03:17:57.938Z,1005.42
2018-06-17T03:18:57.938Z,1005.41
2018-06-17T03:19:57.940Z,1005.40
2018-06-17T03:20:57.941Z,1005.38
2018-06-17T03:21:57.942Z,1005.41
2018-06-17T03:22:57.943Z,1005.35
2018-06-17T03:23:57.945Z,1005.35
2018-06-17T03:24:57.945Z,1005.34
2018-06-17T03:25:57.947Z,1005.34
2018-06-17T03:26:57.965Z,1005.33
2018-06-17T03:27:57.950Z,1005.35
2018-06-17T03:28:57.953Z,1005.33
2018-06-17T03:29:57.951Z,1005.35
2018-06-17T03:30:57.953Z,1005.35
2018-06-17T03:31:57.954Z,1005.34
2018-06-17T03:32:57.955Z,1005.34
2018-06-17T03:33:57.955Z,1005.33
2018-06-17T03:34:57.957Z,1005.41
2018-06-17T03:35:57.958Z,1005.35
2018-06-17T03:36:57.960Z,1005.39
2018-06-17T03:37:57.960Z,1005.37
2018-06-17T03:38:57.963Z,1005.40
2018-06-17T03:39:57.963Z,1005.38
2018-06-17T03:40:57.965Z,1005.42
2018-06-17T03:41:57.968Z,1005.44
2018-06-17T03:42:57.967Z,1005.43
2018-06-17T03:43:57.967Z,1005.39
2018-06-17T03:44:57.969Z,1005.39
2018-06-17T03:45:57.971Z,1005.39
2018-06-17T03:46:57.971Z,1005.41
2018-06-17T03:47:57.973Z,1005.39
2018-06-17T03:48:57.974Z,1005.39
2018-06-17T03:49:57.978Z,1005.31
2018-06-17T03:50:57.976Z,1005.31
2018-06-17T03:51:57.978Z,1005.36
2018-06-17T03:52:57.979Z,1005.37
2018-06-17T03:53:57.981Z,1005.37
2018-06-17T03:54:57.980Z,1005.35
2018-06-17T03:55:57.983Z,1005.36
2018-06-17T03:56:57.983Z,1005.37
2018-06-17T03:57:57.984Z,1005.38
2018-06-17T03:58:57.984Z,1005.36
2018-06-17T03:59:57.986Z,1005.35
2018-06-17T04:00:57.987Z,1005.35
2018-06-17T04:01:57.988Z,1005.37
2018-06-17T04:02:57.989Z,1005.34
2018-06-17T04:03:58.049Z,1005.36
2018-06-17T04:04:57.992Z,1005.37
2018-06-17T04:05:57.992Z,1005.43
2018-06-17T04:06:57.994Z,1005.44
2018-06-17T04:07:57.995Z,1005.44
2018-06-17T04:08:57.996Z,1005.44
2018-06-17T04:09:57.998Z,1005.43
2018-06-17T04:10:57.998Z,1005.48
2018-06-17T04:11:58.001Z,1005.50
2018-06-17T04:12:57.999Z,1005.51
2018-06-17T04:13:58.002Z,1005.49
2018-06-17T04:14:58.003Z,1005.46
2018-06-17T04:15:58.017Z,1005.42
2018-06-17T04:16:58.006Z,1005.44
2018-06-17T04:17:58.005Z,1005.45
2018-06-17T04:18:58.007Z,1005.41
2018-06-17T04:19:58.008Z,1005.50
2018-06-17T04:20:58.010Z,1005.51
2018-06-17T04:21:58.010Z,1005.46
2018-06-17T04:22:58.012Z,1005.50
2018-06-17T04:23:58.013Z,1005.48
2018-06-17T04:24:58.014Z,1005.51
2018-06-17T04:25:58.014Z,1005.51
2018-06-17T04:26:58.016Z,1005.58
2018-06-17T04:27:58.016Z,1005.54
2018-06-17T04:28:58.018Z,1005.51
2018-06-17T04:29:58.017Z,1005.51
2018-06-17T04:30:58.019Z,1005.51
2018-06-17T04:31:58.020Z,1005.51
2018-06-17T04:32:58.021Z,1005.52
2018-06-17T04:33:58.023Z,1005.51
2018-06-17T04:34:58.022Z,1005.53
2018-06-17T04:35:58.024Z,1005.53
2018-06-17T04:36:58.025Z,1005.51
2018-06-17T04:37:58.025Z,1005.48
2018-06-17T04:38:58.028Z,1005.51
2018-06-17T04:39:58.027Z,1005.50
2018-06-17T04:40:58.028Z,1005.51
2018-06-17T04:41:58.029Z,1005.54
2018-06-17T04:42:58.030Z,1005.50
2018-06-17T04:43:58.031Z,1005.50
2018-06-17T04:44:58.032Z,1005.52
2018-06-17T04:45:58.033Z,1005.53
2018-06-17T04:46:58.034Z,1005.49
2018-06-17T04:47:58.035Z,1005.41
2018-06-17T04:48:58.037Z,1005.47
2018-06-17T04:49:58.037Z,1005.49
2018-06-17T04:50:58.037Z,1005.56
2018-06-17T04:51:58.039Z,1005.53
2018-06-17T04:52:58.040Z,1005.53
2018-06-17T04:53:58.041Z,1005.49
2018-06-17T04:54:58.039Z,1005.52
2018-06-17T04:55:58.049Z,1005.51
2018-06-17T04:56:58.044Z,1005.48
2018-06-17T04:57:58.044Z,1005.46
2018-06-17T04:58:58.044Z,1005.50
2018-06-17T04:59:58.071Z,1005.50
2018-06-17T05:00:58.048Z,1005.48
2018-06-17T05:01:58.048Z,1005.48
2018-06-17T05:02:58.049Z,1005.48
2018-06-17T05:03:58.050Z,1005.48
2018-06-17T05:04:58.053Z,1005.49
2018-06-17T05:05:58.054Z,1005.45
2018-06-17T05:06:58.052Z,1005.48
2018-06-17T05:07:58.053Z,1005.46
2018-06-17T05:08:58.054Z,1005.46
2018-06-17T05:09:58.056Z,1005.38
2018-06-17T05:10:58.056Z,1005.40
2018-06-17T05:11:58.059Z,1005.37
2018-06-17T05:12:58.059Z,1005.39
2018-06-17T05:13:58.060Z,1005.38
2018-06-17T05:14:58.060Z,1005.41
2018-06-17T05:15:58.061Z,1005.36
2018-06-17T05:16:58.063Z,1005.34
2018-06-17T05:17:58.063Z,1005.37
2018-06-17T05:18:58.065Z,1005.54
2018-06-17T05:19:58.066Z,1005.93
2018-06-17T05:20:58.067Z,1006.09
2018-06-17T05:21:58.072Z,1006.21
2018-06-17T05:22:58.070Z,1006.21
2018-06-17T05:23:58.073Z,1006.23
2018-06-17T05:24:58.075Z,1006.21
2018-06-17T05:25:58.078Z,1006.28
2018-06-17T05:26:58.082Z,1006.21
2018-06-17T05:27:58.087Z,1006.28
2018-06-17T05:28:58.090Z,1006.22
2018-06-17T05:29:58.095Z,1006.17
2018-06-17T05:30:58.100Z,1006.27
2018-06-17T05:31:58.107Z,1006.35
2018-06-17T05:32:58.114Z,1006.39
2018-06-17T05:33:58.118Z,1006.44
2018-06-17T05:34:58.126Z,1006.44
2018-06-17T05:35:58.133Z,1006.50
2018-06-17T05:36:58.141Z,1006.45
2018-06-17T05:37:58.148Z,1006.38
2018-06-17T05:38:58.156Z,1006.26
2018-06-17T05:39:58.164Z,1006.21
2018-06-17T05:40:58.173Z,1006.09
2018-06-17T05:41:58.181Z,1006.04
2018-06-17T05:42:58.192Z,1005.94
2018-06-17T05:43:58.204Z,1005.88
2018-06-17T05:44:58.209Z,1005.91
2018-06-17T05:45:58.218Z,1005.89
2018-06-17T05:46:58.228Z,1005.88
2018-06-17T05:47:58.237Z,1005.93
2018-06-17T05:48:58.247Z,1005.87
2018-06-17T05:49:58.255Z,1005.89
2018-06-17T05:50:58.265Z,1005.82
2018-06-17T05:51:58.273Z,1005.83
2018-06-17T05:52:58.283Z,1005.89
2018-06-17T05:53:58.291Z,1005.89
2018-06-17T05:54:58.299Z,1005.83
2018-06-17T05:55:58.310Z,1005.86
2018-06-17T05:56:58.317Z,1005.78
2018-06-17T05:57:58.323Z,1005.81
2018-06-17T05:58:58.333Z,1005.86
2018-06-17T05:59:58.338Z,1005.86
2018-06-17T06:00:58.345Z,1005.86
2018-06-17T06:01:58.352Z,1005.86
2018-06-17T06:02:58.360Z,1005.84
2018-06-17T06:03:58.380Z,1005.81
2018-06-17T06:04:58.373Z,1005.79
2018-06-17T06:05:58.379Z,1005.79
2018-06-17T06:06:58.385Z,1005.85
2018-06-17T06:07:58.392Z,1005.80
2018-06-17T06:08:58.396Z,1005.80
2018-06-17T06:09:58.411Z,1005.73
2018-06-17T06:10:58.409Z,1005.78
2018-06-17T06:11:58.416Z,1005.73
2018-06-17T06:12:58.420Z,1005.81
2018-06-17T06:13:58.425Z,1005.73
2018-06-17T06:14:58.431Z,1005.75
2018-06-17T06:15:58.436Z,1005.76
2018-06-17T06:16:58.444Z,1005.80
2018-06-17T06:17:58.446Z,1005.85
2018-06-17T06:18:58.451Z,1005.80
2018-06-17T06:19:58.456Z,1005.79
2018-06-17T06:20:58.462Z,1005.84
2018-06-17T06:21:58.466Z,1005.78
2018-06-17T06:22:58.471Z,1005.84
2018-06-17T06:23:58.475Z,1005.84
2018-06-17T06:24:58.481Z,1005.81
2018-06-17T06:25:58.483Z,1005.91
2018-06-17T06:26:58.501Z,1005.87
2018-06-17T06:27:58.494Z,1005.87
2018-06-17T06:28:58.501Z,1005.91
2018-06-17T06:29:58.503Z,1005.96
2018-06-17T06:30:58.511Z,1005.94
2018-06-17T06:31:58.510Z,1005.93
2018-06-17T06:32:58.516Z,1005.93
2018-06-17T06:33:58.519Z,1005.96
2018-06-17T06:34:58.523Z,1006.01
2018-06-17T06:35:58.528Z,1006.03
2018-06-17T06:36:58.532Z,1006.07
2018-06-17T06:37:58.536Z,1006.06
2018-06-17T06:38:58.540Z,1006.15
2018-06-17T06:39:58.544Z,1006.11
2018-06-17T06:40:58.549Z,1006.09
2018-06-17T06:41:58.552Z,1006.05
2018-06-17T06:42:58.586Z,1006.11
2018-06-17T06:43:58.561Z,1006.17
2018-06-17T06:44:58.565Z,1006.18
2018-06-17T06:45:58.568Z,1006.10
2018-06-17T06:46:58.572Z,1006.10
2018-06-17T06:47:58.576Z,1006.10
2018-06-17T06:48:58.580Z,1006.13
2018-06-17T06:49:58.587Z,1006.06
2018-06-17T06:50:58.654Z,1006.10
2018-06-17T06:51:58.592Z,1006.02
2018-06-17T06:52:58.596Z,1006.07
2018-06-17T06:53:58.599Z,1006.06
2018-06-17T06:54:58.602Z,1006.05
2018-06-17T06:55:58.607Z,1006.10
2018-06-17T06:56:58.612Z,1006.04
2018-06-17T06:57:58.614Z,1006.12
2018-06-17T06:58:58.619Z,1006.08
2018-06-17T06:59:58.623Z,1006.07
2018-06-17T07:00:58.629Z,1006.12
2018-06-17T07:01:58.630Z,1006.09
2018-06-17T07:02:58.635Z,1006.16
2018-06-17T07:03:58.639Z,1006.16
2018-06-17T07:04:58.643Z,1006.15
2018-06-17T07:05:58.647Z,1006.14
2018-06-17T07:06:58.651Z,1006.19
2018-06-17T07:07:58.655Z,1006.19
2018-06-17T07:08:58.663Z,1006.22
2018-06-17T07:09:58.670Z,1006.25
2018-06-17T07:10:58.668Z,1006.30
2018-06-17T07:11:58.672Z,1006.26
2018-06-17T07:12:58.678Z,1006.25
2018-06-17T07:13:58.680Z,1006.32
2018-06-17T07:14:58.684Z,1006.29
2018-06-17T07:15:58.692Z,1006.27
2018-06-17T07:16:58.694Z,1006.30
2018-06-17T07:17:58.697Z,1006.35
2018-06-17T07:18:58.701Z,1006.35
2018-06-17T07:19:58.706Z,1006.29
2018-06-17T07:20:58.710Z,1006.31
2018-06-17T07:21:58.717Z,1006.34
2018-06-17T07:22:58.720Z,1006.41
2018-06-17T07:23:58.724Z,1006.34
2018-06-17T07:24:58.740Z,1006.33
2018-06-17T07:25:58.733Z,1006.34
2018-06-17T07:26:58.741Z,1006.48
2018-06-17T07:27:58.744Z,1006.61
2018-06-17T07:28:58.748Z,1006.80
2018-06-17T07:29:58.756Z,1006.96
2018-06-17T07:30:58.759Z,1006.95
2018-06-17T07:31:58.764Z,1006.79
2018-06-17T07:32:58.769Z,1006.49
2018-06-17T07:33:58.778Z,1006.80
2018-06-17T07:34:58.786Z,1006.75
2018-06-17T07:35:58.800Z,1006.79
2018-06-17T07:36:58.796Z,1006.76
2018-06-17T07:37:58.808Z,1006.71
2018-06-17T07:38:58.810Z,1006.74
2018-06-17T07:39:58.819Z,1006.72
2018-06-17T07:40:58.825Z,1006.81
2018-06-17T07:41:58.832Z,1006.80
2018-06-17T07:42:58.838Z,1006.87
2018-06-17T07:43:58.847Z,1006.80
2018-06-17T07:44:58.855Z,1006.98
2018-06-17T07:45:58.868Z,1007.01
2018-06-17T07:46:58.871Z,1007.05
2018-06-17T07:47:58.885Z,1006.96
2018-06-17T07:48:58.888Z,1006.93
2018-06-17T07:49:58.902Z,1006.94
2018-06-17T07:50:58.903Z,1006.92
2018-06-17T07:51:58.917Z,1006.87
2018-06-17T07:52:58.920Z,1006.89
2018-06-17T07:53:58.930Z,1006.82
2018-06-17T07:54:58.937Z,1006.81
2018-06-17T07:55:58.971Z,1006.85
2018-06-17T07:56:58.955Z,1006.91
2018-06-17T07:57:58.962Z,1007.05
2018-06-17T07:58:58.972Z,1007.12
2018-06-17T07:59:58.980Z,1007.23
2018-06-17T08:00:58.989Z,1007.10
2018-06-17T08:01:58.997Z,1007.08
2018-06-17T08:02:59.006Z,1007.23
2018-06-17T08:03:59.016Z,1007.11
2018-06-17T08:04:59.025Z,1007.02
2018-06-17T08:05:59.034Z,1007.02
2018-06-17T08:06:59.043Z,1007.05
2018-06-17T08:07:59.054Z,1007.15
2018-06-17T08:08:59.064Z,1006.76
2018-06-17T08:09:59.073Z,1006.89
2018-06-17T08:10:59.184Z,1007.15
2018-06-17T08:11:59.094Z,1007.20
2018-06-17T08:12:59.104Z,1007.15
2018-06-17T08:13:59.112Z,1006.71
2018-06-17T08:14:59.122Z,1006.69
2018-06-17T08:15:59.132Z,1006.70
2018-06-17T08:16:59.143Z,1006.65
2018-06-17T08:17:59.151Z,1006.69
2018-06-17T08:18:59.161Z,1006.72
2018-06-17T08:19:59.171Z,1006.68
2018-06-17T08:20:59.180Z,1006.70
2018-06-17T08:21:59.190Z,1006.83
2018-06-17T08:22:59.198Z,1006.74
2018-06-17T08:23:59.209Z,1006.75
2018-06-17T08:24:59.244Z,1007.07
2018-06-17T08:25:59.232Z,1006.77
2018-06-17T08:26:59.235Z,1006.76
2018-06-17T08:27:59.247Z,1006.76
2018-06-17T08:28:59.254Z,1006.78
2018-06-17T08:29:59.260Z,1006.79
2018-06-17T08:30:59.270Z,1006.70
2018-06-17T08:31:59.288Z,1006.75
2018-06-17T08:32:59.287Z,1006.80
2018-06-17T08:33:59.301Z,1006.84
2018-06-17T08:34:59.302Z,1006.95
2018-06-17T08:35:59.317Z,1006.80
2018-06-17T08:36:59.319Z,1006.76
2018-06-17T08:37:59.326Z,1006.81
2018-06-17T08:38:59.335Z,1006.79
2018-06-17T08:39:59.350Z,1006.76
2018-06-17T08:40:59.351Z,1006.93
2018-06-17T08:41:59.358Z,1006.92
2018-06-17T08:42:59.367Z,1006.84
2018-06-17T08:43:59.374Z,1006.88
2018-06-17T08:44:59.382Z,1006.81
2018-06-17T08:45:59.389Z,1006.78
2018-06-17T08:46:59.395Z,1006.77
2018-06-17T08:47:59.411Z,1006.78
2018-06-17T08:48:59.412Z,1006.82
2018-06-17T08:49:59.426Z,1006.79
2018-06-17T08:50:59.427Z,1006.80
2018-06-17T08:51:59.441Z,1006.73
2018-06-17T08:52:59.442Z,1006.82
2018-06-17T08:53:59.449Z,1006.86
2018-06-17T08:54:59.458Z,1006.88
2018-06-17T08:55:59.472Z,1006.90
2018-06-17T08:56:59.474Z,1006.92
2018-06-17T08:57:59.480Z,1006.80
2018-06-17T08:58:59.489Z,1006.87
2018-06-17T08:59:59.503Z,1006.81
2018-06-17T09:00:59.505Z,1006.86
2018-06-17T09:01:59.513Z,1006.78
2018-06-17T09:02:59.521Z,1006.77
2018-06-17T09:03:59.537Z,1006.71
2018-06-17T09:04:59.538Z,1006.80
2018-06-17T09:05:59.550Z,1006.84
2018-06-17T09:06:59.554Z,1006.88
2018-06-17T09:07:59.562Z,1006.88
2018-06-17T09:08:59.570Z,1006.88
2018-06-17T09:09:59.578Z,1006.88
2018-06-17T09:10:59.587Z,1006.90
2018-06-17T09:11:59.602Z,1006.82
2018-06-17T09:12:59.605Z,1006.87
2018-06-17T09:13:59.613Z,1006.94
2018-06-17T09:14:59.617Z,1006.86
2018-06-17T09:15:59.631Z,1006.83
2018-06-17T09:16:59.634Z,1006.85
2018-06-17T09:17:59.649Z,1006.82
2018-06-17T09:18:59.648Z,1006.84
2018-06-17T09:19:59.657Z,1006.81
2018-06-17T09:20:59.711Z,1006.79
2018-06-17T09:21:59.718Z,1006.83
2018-06-17T09:22:59.678Z,1006.93
2018-06-17T09:23:59.686Z,1006.87
2018-06-17T09:24:59.697Z,1006.86
2018-06-17T09:25:59.701Z,1006.89
2018-06-17T09:26:59.707Z,1006.90
2018-06-17T09:27:59.715Z,1006.94
2018-06-17T09:28:59.722Z,1006.81
2018-06-17T09:29:59.729Z,1006.88
2018-06-17T09:30:59.738Z,1006.89
2018-06-17T09:31:59.771Z,1006.81
2018-06-17T09:32:59.751Z,1006.84
2018-06-17T09:33:59.757Z,1006.81
2018-06-17T09:34:59.765Z,1006.81
2018-06-17T09:35:59.773Z,1006.85
2018-06-17T09:36:59.780Z,1006.86
2018-06-17T09:37:59.789Z,1006.83
2018-06-17T09:38:59.792Z,1007.04
2018-06-17T09:39:59.802Z,1006.93
2018-06-17T09:40:59.809Z,1007.03
2018-06-17T09:41:59.811Z,1006.91
2018-06-17T09:42:59.819Z,1007.01
2018-06-17T09:43:59.825Z,1006.90
2018-06-17T09:44:59.833Z,1007.00
2018-06-17T09:45:59.839Z,1006.88
2018-06-17T09:46:59.847Z,1006.91
2018-06-17T09:47:59.853Z,1006.93
2018-06-17T09:48:59.861Z,1006.95
2018-06-17T09:49:59.866Z,1006.90
2018-06-17T09:50:59.873Z,1006.96
2018-06-17T09:51:59.892Z,1007.11
2018-06-17T09:52:59.890Z,1007.02
2018-06-17T09:53:59.893Z,1007.12
2018-06-17T09:54:59.901Z,1007.05
2018-06-17T09:55:59.908Z,1007.10
2018-06-17T09:56:59.914Z,1006.99
2018-06-17T09:57:59.921Z,1007.07
2018-06-17T09:58:59.928Z,1006.95
2018-06-17T09:59:59.936Z,1006.99
2018-06-17T10:00:59.944Z,1006.99
2018-06-17T10:01:59.949Z,1006.97
2018-06-17T10:02:59.955Z,1007.05
2018-06-17T10:03:59.963Z,1007.04
2018-06-17T10:04:59.975Z,1007.12
2018-06-17T10:05:59.976Z,1007.15
2018-06-17T10:06:59.984Z,1007.20
2018-06-17T10:07:59.989Z,1007.14
2018-06-17T10:09:00.038Z,1007.18
2018-06-17T10:10:00.008Z,1007.16
2018-06-17T10:11:00.011Z,1007.17
2018-06-17T10:12:00.018Z,1007.18
2018-06-17T10:13:00.027Z,1007.16
2018-06-17T10:14:00.031Z,1007.13
2018-06-17T10:15:00.046Z,1007.14
2018-06-17T10:16:00.081Z,1007.12
2018-06-17T10:17:00.053Z,1007.08
2018-06-17T10:18:00.058Z,1007.07
2018-06-17T10:19:00.067Z,1007.08
2018-06-17T10:20:00.073Z,1007.01
2018-06-17T10:21:00.081Z,1007.14
2018-06-17T10:22:00.086Z,1007.08
2018-06-17T10:23:00.094Z,1007.12
2018-06-17T10:24:00.101Z,1007.16
2018-06-17T10:25:00.109Z,1007.21
2018-06-17T10:26:00.115Z,1007.21
2018-06-17T10:27:00.121Z,1007.22
2018-06-17T10:28:00.128Z,1007.16
2018-06-17T10:29:00.135Z,1007.20
2018-06-17T10:30:00.143Z,1007.15
2018-06-17T10:31:00.147Z,1007.19
2018-06-17T10:32:00.155Z,1007.23
2018-06-17T10:33:00.161Z,1007.24
2018-06-17T10:34:00.167Z,1007.22
2018-06-17T10:35:00.175Z,1007.20
2018-06-17T10:36:00.182Z,1007.26
2018-06-17T10:37:00.190Z,1007.30
2018-06-17T10:38:00.209Z,1007.26
2018-06-17T10:39:00.200Z,1007.32
2018-06-17T10:40:00.207Z,1007.39
2018-06-17T10:41:00.214Z,1007.30
2018-06-17T10:42:00.219Z,1007.46
2018-06-17T10:43:00.226Z,1007.30
2018-06-17T10:44:00.233Z,1007.32
2018-06-17T10:45:00.241Z,1007.31
2018-06-17T10:46:00.246Z,1007.37
2018-06-17T10:47:00.252Z,1007.33
2018-06-17T10:48:00.260Z,1007.30
2018-06-17T10:49:00.265Z,1007.31
2018-06-17T10:50:00.275Z,1007.26
2018-06-17T10:51:00.278Z,1007.20
2018-06-17T10:52:00.285Z,1007.18
2018-06-17T10:53:00.292Z,1007.16
2018-06-17T10:54:00.298Z,1007.22
2018-06-17T10:55:00.305Z,1007.26
2018-06-17T10:56:00.409Z,1007.27
2018-06-17T10:57:00.318Z,1007.25
2018-06-17T10:58:00.324Z,1007.26
2018-06-17T10:59:00.329Z,1007.30
2018-06-17T11:00:00.338Z,1007.25
2018-06-17T11:01:00.346Z,1007.32
2018-06-17T11:02:00.351Z,1007.34
2018-06-17T11:03:00.356Z,1007.38
2018-06-17T11:04:00.363Z,1007.42
2018-06-17T11:05:00.370Z,1007.41
2018-06-17T11:06:00.376Z,1007.45
2018-06-17T11:07:00.382Z,1007.44
2018-06-17T11:08:00.389Z,1007.44
2018-06-17T11:09:00.398Z,1007.44
2018-06-17T11:10:00.401Z,1007.44
2018-06-17T11:11:00.409Z,1007.47
2018-06-17T11:12:00.416Z,1007.41
2018-06-17T11:13:00.464Z,1007.41
2018-06-17T11:14:00.426Z,1007.40
2018-06-17T11:15:00.434Z,1007.37
2018-06-17T11:16:00.443Z,1007.46
2018-06-17T11:17:00.446Z,1007.49
2018-06-17T11:18:00.452Z,1007.44
2018-06-17T11:19:00.459Z,1007.46
2018-06-17T11:20:00.467Z,1007.47
2018-06-17T11:21:00.471Z,1007.49
2018-06-17T11:22:00.478Z,1007.52
2018-06-17T11:23:00.486Z,1007.52
2018-06-17T11:24:00.491Z,1007.48
2018-06-17T11:25:00.496Z,1007.45
2018-06-17T11:26:00.502Z,1007.41
2018-06-17T11:27:00.508Z,1007.42
2018-06-17T11:28:00.515Z,1007.39
2018-06-17T11:29:00.521Z,1007.39
2018-06-17T11:30:00.526Z,1007.42
2018-06-17T11:31:00.533Z,1007.38
2018-06-17T11:32:00.540Z,1007.40
2018-06-17T11:33:00.547Z,1007.41
2018-06-17T11:34:00.551Z,1007.43
2018-06-17T11:35:00.561Z,1007.45
2018-06-17T11:36:00.567Z,1007.48
2018-06-17T11:37:00.570Z,1007.44
2018-06-17T11:38:00.577Z,1007.49
2018-06-17T11:39:00.666Z,1007.47
2018-06-17T11:40:00.595Z,1007.53
2018-06-17T11:41:00.594Z,1007.51
2018-06-17T11:42:00.603Z,1007.53
2018-06-17T11:43:00.606Z,1007.50
2018-06-17T11:44:00.612Z,1007.49
2018-06-17T11:45:00.616Z,1007.52
2018-06-17T11:46:00.625Z,1007.54
2018-06-17T11:47:00.629Z,1007.65
2018-06-17T11:48:00.636Z,1007.57
2018-06-17T11:49:00.640Z,1007.63
2018-06-17T11:50:00.646Z,1007.62
2018-06-17T11:51:00.674Z,1007.68
2018-06-17T11:52:00.659Z,1007.66
2018-06-17T11:53:00.665Z,1007.68
2018-06-17T11:54:00.674Z,1007.66
2018-06-17T11:55:00.678Z,1007.72
2018-06-17T11:56:00.684Z,1007.68
2018-06-17T11:57:00.692Z,1007.68
2018-06-17T11:58:00.695Z,1007.74
2018-06-17T11:59:00.703Z,1007.74
2018-06-17T12:00:00.707Z,1007.70
2018-06-17T12:01:00.714Z,1007.73
2018-06-17T12:02:00.720Z,1007.69
2018-06-17T12:03:00.726Z,1007.72
2018-06-17T12:04:00.733Z,1007.75
2018-06-17T12:05:00.737Z,1007.82
2018-06-17T12:06:00.745Z,1007.68